Time;durP1;ratioP1;P1;durP2;ratioP2;P2;SDS_P1;SDS_P2;PMS_P1;PMS_P2;Temp;Humidity;BMP_temperature;BMP_pressure;BME280_temperature;BME280_humidity;BME280_pressure;Samples;Min_cycle;Max_cycle;Signal;HPM_P1;HPM_P2
2023/11/23 00:00:21;;;;;;;11.40;4.07;;;;;;;;;;10065155;28;20465;-75
2023/11/23 00:05:14;;;;;;;8.55;4.63;;;;;;;;;;10064697;28;20376;-75
2023/11/23 00:10:07;;;;;;;5.90;4.22;;;;;;;;;;10064150;28;20050;-75
2023/11/23 00:15:01;;;;;;;6.53;3.78;;;;;;;;;;10064139;28;20033;-76
2023/11/23 00:19:54;;;;;;;6.38;3.90;;;;;;;;;;10062961;28;20056;-75
2023/11/23 00:24:46;;;;;;;11.57;5.60;;;;;;;;;;10063985;28;20057;-75
2023/11/23 00:29:38;;;;;;;14.68;4.93;;;;;;;;;;10062181;28;20045;-75
2023/11/23 00:34:30;;;;;;;5.03;4.10;;;;;;;;;;10062876;28;20042;-75
2023/11/23 00:39:22;;;;;;;9.35;4.30;;;;;;;;;;10062991;28;20451;-75
2023/11/23 00:44:14;;;;;;;8.15;5.43;;;;;;;;;;10047177;28;20046;-75
2023/11/23 00:49:06;;;;;;;7.85;5.00;;;;;;;;;;10061449;28;20060;-75
2023/11/23 00:53:58;;;;;;;5.53;4.45;;;;;;;;;;10061451;28;20095;-75
2023/11/23 00:58:53;;;;;;;4.95;4.38;;;;;;;;;;10062549;28;20033;-75
2023/11/23 01:03:45;;;;;;;14.85;4.75;;;;;;;;;;10062611;28;20045;-75
2023/11/23 01:08:37;;;;;;;9.10;4.90;;;;;;;;;;10062508;28;20367;-75
2023/11/23 01:13:29;;;;;;;9.95;4.72;;;;;;;;;;10062505;28;20042;-75
2023/11/23 01:18:22;;;;;;;6.68;4.57;;;;;;;;;;10059316;28;20050;-75
2023/11/23 01:23:14;;;;;;;7.35;4.88;;;;;;;;;;10062377;28;20462;-75
2023/11/23 01:28:06;;;;;;;11.18;4.72;;;;;;;;;;10062368;28;20041;-75
2023/11/23 01:32:58;;;;;;;6.00;4.75;;;;;;;;;;10059724;28;20060;-75
2023/11/23 01:37:50;;;;;;;6.10;5.28;;;;;;;;;;10064148;28;20041;-75
2023/11/23 01:42:41;;;;;;;6.35;4.32;;;;;;;;;;10074758;28;20041;-75
2023/11/23 01:47:36;;;;;;;6.05;5.03;;;;;;;;;;10072675;28;20552;-75
2023/11/23 01:52:30;;;;;;;6.68;4.18;;;;;;;;;;10073553;28;20460;-75
2023/11/23 01:57:23;;;;;;;6.93;5.20;;;;;;;;;;10073490;28;20044;-75
2023/11/23 02:02:15;;;;;;;6.70;3.75;;;;;;;;;;10056760;28;20460;-75
2023/11/23 02:07:08;;;;;;;8.93;5.32;;;;;;;;;;10072552;28;20668;-75
2023/11/23 02:12:06;;;;;;;5.88;4.93;;;;;;;;;;10072746;28;20087;-75
2023/11/23 02:16:58;;;;;;;9.18;4.85;;;;;;;;;;10072067;28;20053;-75
2023/11/23 02:21:50;;;;;;;5.88;3.90;;;;;;;;;;10074325;28;20483;-75
2023/11/23 02:26:42;;;;;;;5.10;3.90;;;;;;;;;;10074254;28;20096;-75
2023/11/23 02:31:33;;;;;;;11.77;4.65;;;;;;;;;;10073404;28;20105;-75
2023/11/23 02:36:26;;;;;;;11.63;5.78;;;;;;;;;;10073999;28;20476;-75
2023/11/23 02:41:18;;;;;;;8.15;4.68;;;;;;;;;;10072275;28;20040;-75
2023/11/23 02:46:10;;;;;;;6.72;4.70;;;;;;;;;;10071867;28;20156;-74
2023/11/23 02:51:02;;;;;;;6.95;4.68;;;;;;;;;;10051820;28;20111;-75
2023/11/23 02:55:54;;;;;;;8.45;4.70;;;;;;;;;;10066982;28;20038;-75
2023/11/23 03:00:46;;;;;;;4.70;3.75;;;;;;;;;;10067411;28;20041;-75
2023/11/23 03:05:39;;;;;;;10.02;4.38;;;;;;;;;;10065441;28;20168;-75
2023/11/23 03:10:31;;;;;;;8.60;4.30;;;;;;;;;;10051650;28;20041;-75
2023/11/23 03:15:23;;;;;;;5.47;4.38;;;;;;;;;;10066429;28;20436;-74
2023/11/23 03:20:16;;;;;;;8.82;4.88;;;;;;;;;;10064571;28;20049;-75
2023/11/23 03:25:09;;;;;;;7.75;4.90;;;;;;;;;;10065660;28;20519;-74
2023/11/23 03:30:00;;;;;;;5.70;5.10;;;;;;;;;;10066586;28;20095;-75
2023/11/23 03:34:52;;;;;;;5.53;4.70;;;;;;;;;;10065825;28;20061;-75
2023/11/23 03:39:45;;;;;;;6.68;5.30;;;;;;;;;;10065511;28;20044;-74
2023/11/23 03:44:37;;;;;;;6.25;5.15;;;;;;;;;;10063628;28;20045;-75
2023/11/23 03:49:32;;;;;;;5.20;4.70;;;;;;;;;;10065384;28;20045;-75
2023/11/23 03:54:24;;;;;;;7.70;5.32;;;;;;;;;;10064665;28;20041;-75
2023/11/23 03:59:15;;;;;;;7.68;5.43;;;;;;;;;;10065518;28;20423;-76
2023/11/23 04:04:07;;;;;;;7.75;5.30;;;;;;;;;;10064244;28;20053;-74
2023/11/23 04:08:59;;;;;;;8.63;5.45;;;;;;;;;;10064183;28;20092;-77
2023/11/23 04:13:51;;;;;;;6.35;5.10;;;;;;;;;;10064366;28;20041;-76
2023/11/23 04:18:44;;;;;;;8.85;5.40;;;;;;;;;;10062413;28;20061;-76
2023/11/23 04:23:36;;;;;;;7.93;6.22;;;;;;;;;;10063392;28;20053;-76
2023/11/23 04:28:28;;;;;;;5.88;5.30;;;;;;;;;;10064056;28;20456;-76
2023/11/23 04:33:22;;;;;;;7.47;6.25;;;;;;;;;;10063582;28;20146;-76
2023/11/23 04:38:15;;;;;;;10.10;6.75;;;;;;;;;;10063153;28;20045;-76
2023/11/23 04:43:06;;;;;;;8.02;5.50;;;;;;;;;;10062415;28;20496;-76
2023/11/23 04:47:58;;;;;;;25.60;23.13;;;;;;;;;;10062671;28;20137;-76
2023/11/23 04:52:50;;;;;;;7.78;6.97;;;;;;;;;;10062685;28;20197;-76
2023/11/23 04:57:42;;;;;;;56.67;42.67;;;;;;;;;;10062828;28;20053;-76
2023/11/23 05:02:34;;;;;;;14.27;11.63;;;;;;;;;;10062498;28;20041;-76
2023/11/23 05:07:27;;;;;;;9.32;6.43;;;;;;;;;;10062388;28;20057;-76
2023/11/23 05:12:19;;;;;;;8.73;7.05;;;;;;;;;;10061093;28;20393;-76
2023/11/23 05:17:11;;;;;;;13.68;8.85;;;;;;;;;;10060212;28;20389;-76
2023/11/23 05:22:03;;;;;;;15.95;12.60;;;;;;;;;;10059706;28;20140;-76
2023/11/23 05:26:55;;;;;;;13.48;10.45;;;;;;;;;;10061480;28;20091;-76
2023/11/23 05:31:48;;;;;;;18.38;13.57;;;;;;;;;;10062232;28;20049;-76
2023/11/23 05:36:39;;;;;;;9.80;7.22;;;;;;;;;;10061267;28;20115;-76
2023/11/23 05:41:31;;;;;;;7.82;6.63;;;;;;;;;;10061748;28;20041;-76
2023/11/23 05:46:23;;;;;;;8.05;7.25;;;;;;;;;;10059324;28;20056;-76
2023/11/23 05:51:15;;;;;;;10.95;7.97;;;;;;;;;;10061352;28;20095;-76
2023/11/23 05:56:07;;;;;;;8.73;5.35;;;;;;;;;;10064722;28;20041;-76
2023/11/23 06:00:59;;;;;;;8.95;6.55;;;;;;;;;;10065036;28;20423;-77
2023/11/23 06:06:03;;;;;;;17.13;9.35;;;;;;;;;;10064025;28;20354;-77
2023/11/23 06:10:55;;;;;;;8.43;5.93;;;;;;;;;;10064552;28;20038;-74
2023/11/23 06:15:48;;;;;;;9.43;6.68;;;;;;;;;;10063458;28;20046;-76
2023/11/23 06:20:40;;;;;;;16.65;15.05;;;;;;;;;;10064126;28;20045;-75
2023/11/23 06:25:32;;;;;;;8.25;7.00;;;;;;;;;;10068316;28;20077;-77
2023/11/23 06:30:24;;;;;;;10.07;6.63;;;;;;;;;;10067216;28;20432;-76
2023/11/23 06:35:16;;;;;;;7.28;6.07;;;;;;;;;;10070347;28;20072;-76
2023/11/23 06:40:08;;;;;;;15.32;8.77;;;;;;;;;;10067733;28;20076;-80
2023/11/23 06:45:00;;;;;;;10.40;6.78;;;;;;;;;;10069717;28;20080;-79
2023/11/23 06:49:52;;;;;;;26.05;20.50;;;;;;;;;;10069641;28;20060;-79
2023/11/23 06:54:43;;;;;;;23.88;16.50;;;;;;;;;;10069288;28;20094;-79
2023/11/23 06:59:36;;;;;;;31.98;13.80;;;;;;;;;;10067836;28;20049;-80
2023/11/23 07:04:27;;;;;;;14.85;9.13;;;;;;;;;;10066156;28;20050;-79
2023/11/23 07:09:20;;;;;;;11.55;6.68;;;;;;;;;;10064241;28;20041;-79
2023/11/23 07:14:12;;;;;;;14.43;7.35;;;;;;;;;;10066966;28;20080;-76
2023/11/23 07:19:04;;;;;;;9.70;7.03;;;;;;;;;;10064865;28;20491;-78
2023/11/23 07:23:56;;;;;;;24.42;14.00;;;;;;;;;;10066463;28;20046;-75
2023/11/23 07:28:48;;;;;;;14.32;10.95;;;;;;;;;;10063960;28;20057;-78
2023/11/23 07:33:40;;;;;;;35.55;18.92;;;;;;;;;;10064906;28;20128;-79
2023/11/23 07:38:32;;;;;;;13.25;8.32;;;;;;;;;;10063240;28;20107;-79
2023/11/23 07:43:24;;;;;;;18.63;13.50;;;;;;;;;;10065916;28;20041;-79
2023/11/23 07:48:18;;;;;;;26.38;13.82;;;;;;;;;;10060044;28;20079;-79
2023/11/23 07:53:10;;;;;;;12.02;10.10;;;;;;;;;;10061107;28;20439;-79
2023/11/23 07:58:02;;;;;;;12.05;10.85;;;;;;;;;;10060076;28;20095;-79
2023/11/23 08:02:57;;;;;;;12.68;8.70;;;;;;;;;;10063948;28;20065;-80
2023/11/23 08:07:50;;;;;;;15.60;11.95;;;;;;;;;;10064383;28;20172;-79
2023/11/23 08:12:43;;;;;;;16.75;12.93;;;;;;;;;;10064237;28;20376;-78
2023/11/23 08:17:35;;;;;;;12.80;9.80;;;;;;;;;;10062589;28;20368;-79
2023/11/23 08:22:27;;;;;;;14.30;10.80;;;;;;;;;;10062573;28;20069;-79
2023/11/23 08:27:19;;;;;;;18.35;11.43;;;;;;;;;;10063413;28;20049;-79
2023/11/23 08:32:15;;;;;;;14.13;10.32;;;;;;;;;;10062737;28;20045;-78
2023/11/23 08:37:07;;;;;;;10.70;8.30;;;;;;;;;;10061940;28;20064;-80
2023/11/23 08:41:59;;;;;;;12.13;8.13;;;;;;;;;;10061286;28;20468;-79
2023/11/23 08:46:51;;;;;;;14.98;8.48;;;;;;;;;;10062738;28;20209;-79
2023/11/23 08:51:43;;;;;;;11.48;8.43;;;;;;;;;;10061217;28;20077;-79
2023/11/23 08:56:35;;;;;;;10.77;7.75;;;;;;;;;;10059997;28;20124;-79
2023/11/23 09:01:28;;;;;;;10.35;8.45;;;;;;;;;;10057550;28;20404;-79
2023/11/23 09:06:20;;;;;;;17.42;8.18;;;;;;;;;;10058492;28;20057;-79
2023/11/23 09:11:12;;;;;;;12.02;9.98;;;;;;;;;;10059706;28;20045;-80
2023/11/23 09:16:06;;;;;;;11.50;8.57;;;;;;;;;;10060917;28;20061;-81
2023/11/23 09:20:59;;;;;;;9.30;8.23;;;;;;;;;;10061378;28;20052;-80
2023/11/23 09:25:52;;;;;;;16.23;9.07;;;;;;;;;;10062135;28;20108;-80
2023/11/23 09:30:44;;;;;;;11.48;8.65;;;;;;;;;;10060754;28;20400;-79
2023/11/23 09:35:38;;;;;;;14.68;8.57;;;;;;;;;;10060897;28;20053;-80
2023/11/23 09:40:31;;;;;;;14.38;9.38;;;;;;;;;;10060336;28;20049;-80
2023/11/23 09:45:24;;;;;;;15.27;8.45;;;;;;;;;;10059703;28;20132;-79
2023/11/23 09:50:18;;;;;;;20.08;9.15;;;;;;;;;;10059602;28;20041;-79
2023/11/23 09:55:10;;;;;;;10.68;8.20;;;;;;;;;;10061154;28;20050;-80
2023/11/23 10:00:14;;;;;;;13.55;8.60;;;;;;;;;;10063341;28;20108;-80
2023/11/23 10:05:09;;;;;;;15.10;11.00;;;;;;;;;;10070189;28;20041;-80
2023/11/23 10:10:05;;;;;;;17.35;14.05;;;;;;;;;;10067155;28;20042;-80
2023/11/23 10:14:57;;;;;;;11.82;9.07;;;;;;;;;;10068806;28;20361;-80
2023/11/23 10:19:49;;;;;;;11.38;9.00;;;;;;;;;;10068213;28;20072;-80
2023/11/23 10:24:48;;;;;;;20.90;10.85;;;;;;;;;;10069097;28;20107;-80
2023/11/23 10:29:40;;;;;;;12.27;8.75;;;;;;;;;;10067868;28;20119;-80
2023/11/23 10:34:34;;;;;;;16.67;8.98;;;;;;;;;;10067483;28;20187;-79
2023/11/23 10:39:27;;;;;;;16.23;10.27;;;;;;;;;;10066298;28;20508;-80
2023/11/23 10:44:23;;;;;;;10.73;7.93;;;;;;;;;;10062072;28;20068;-80
2023/11/23 10:49:17;;;;;;;11.40;9.27;;;;;;;;;;10059939;28;20037;-80
2023/11/23 10:54:09;;;;;;;13.55;9.88;;;;;;;;;;10065922;28;20041;-80
2023/11/23 10:59:13;;;;;;;10.88;8.25;;;;;;;;;;10065445;28;20045;-80
2023/11/23 11:04:05;;;;;;;15.23;8.07;;;;;;;;;;10064422;28;20042;-79
2023/11/23 11:08:57;;;;;;;11.57;9.15;;;;;;;;;;10063772;28;20465;-80
2023/11/23 11:13:49;;;;;;;14.80;9.88;;;;;;;;;;10065873;28;20075;-79
2023/11/23 11:18:51;;;;;;;22.75;9.80;;;;;;;;;;10070825;28;20052;-79
2023/11/23 11:23:50;;;;;;;13.85;9.77;;;;;;;;;;10067318;28;20053;-79
2023/11/23 11:28:42;;;;;;;11.43;7.75;;;;;;;;;;10058680;28;20053;-81
2023/11/23 11:33:38;;;;;;;9.45;7.88;;;;;;;;;;10058502;28;20045;-80
2023/11/23 11:38:30;;;;;;;14.27;9.57;;;;;;;;;;10054876;28;20141;-80
2023/11/23 11:43:22;;;;;;;16.88;9.27;;;;;;;;;;10057949;28;20061;-81
2023/11/23 11:48:14;;;;;;;15.73;9.30;;;;;;;;;;10061037;28;20472;-82
2023/11/23 11:53:09;;;;;;;10.60;8.65;;;;;;;;;;10069906;28;20099;-81
2023/11/23 11:58:01;;;;;;;13.95;8.93;;;;;;;;;;10061684;28;20072;-81
2023/11/23 12:02:54;;;;;;;24.33;10.05;;;;;;;;;;10065088;28;20068;-81
2023/11/23 12:07:53;;;;;;;12.50;8.93;;;;;;;;;;10064637;28;20453;-81
2023/11/23 12:12:47;;;;;;;15.40;9.35;;;;;;;;;;10055010;28;20046;-82
2023/11/23 12:17:50;;;;;;;15.05;9.73;;;;;;;;;;10063186;28;20115;-81
2023/11/23 12:22:44;;;;;;;11.70;8.25;;;;;;;;;;10052352;28;20045;-81
2023/11/23 12:27:37;;;;;;;13.80;9.10;;;;;;;;;;10055576;28;20049;-81
2023/11/23 12:32:30;;;;;;;14.00;9.85;;;;;;;;;;10062333;28;20041;-81
2023/11/23 12:37:22;;;;;;;11.68;8.30;;;;;;;;;;10058869;28;20415;-81
2023/11/23 12:42:13;;;;;;;13.43;8.27;;;;;;;;;;10055880;28;20129;-82
2023/11/23 12:47:07;;;;;;;11.40;9.05;;;;;;;;;;10065184;28;20431;-83
2023/11/23 12:52:01;;;;;;;12.05;8.85;;;;;;;;;;10070434;28;20037;-81
2023/11/23 12:56:53;;;;;;;11.48;8.98;;;;;;;;;;10060615;28;20037;-84
2023/11/23 13:01:45;;;;;;;19.17;9.07;;;;;;;;;;10059584;28;20045;-82
2023/11/23 13:06:37;;;;;;;11.27;7.32;;;;;;;;;;10053378;28;20083;-82
2023/11/23 13:11:29;;;;;;;9.30;7.13;;;;;;;;;;10053883;28;20132;-82
2023/11/23 13:16:23;;;;;;;11.35;7.60;;;;;;;;;;10058036;28;20045;-82
2023/11/23 13:21:17;;;;;;;11.38;7.85;;;;;;;;;;10052958;28;20231;-81
2023/11/23 13:26:11;;;;;;;14.20;7.93;;;;;;;;;;10062003;28;20052;-83
2023/11/23 13:31:04;;;;;;;8.02;6.57;;;;;;;;;;10060403;28;20479;-81
2023/11/23 13:35:56;;;;;;;7.93;7.10;;;;;;;;;;10050616;28;20037;-81
2023/11/23 13:40:48;;;;;;;10.48;7.88;;;;;;;;;;10057110;28;20059;-81
2023/11/23 13:45:44;;;;;;;14.00;8.18;;;;;;;;;;10051783;28;20055;-81
2023/11/23 13:50:42;;;;;;;13.18;8.75;;;;;;;;;;10050268;28;20050;-82
2023/11/23 13:55:38;;;;;;;12.25;8.10;;;;;;;;;;10055997;28;20037;-81
2023/11/23 14:00:30;;;;;;;9.45;8.30;;;;;;;;;;10056666;28;20049;-81
2023/11/23 14:05:22;;;;;;;9.75;6.80;;;;;;;;;;10054072;28;20046;-81
2023/11/23 14:10:14;;;;;;;10.77;7.25;;;;;;;;;;10056159;28;20148;-81
2023/11/23 14:15:09;;;;;;;7.70;6.78;;;;;;;;;;10053700;28;20041;-81
2023/11/23 14:20:01;;;;;;;11.65;8.27;;;;;;;;;;10048445;28;20045;-81
2023/11/23 14:24:53;;;;;;;19.52;7.57;;;;;;;;;;10047958;28;20100;-81
2023/11/23 14:29:46;;;;;;;13.65;8.23;;;;;;;;;;10066827;28;20451;-81
2023/11/23 14:34:44;;;;;;;10.85;9.52;;;;;;;;;;10046853;28;20589;-81
2023/11/23 14:39:37;;;;;;;12.88;11.57;;;;;;;;;;10048347;28;20046;-81
2023/11/23 14:44:29;;;;;;;13.23;8.05;;;;;;;;;;10044156;28;20046;-81
2023/11/23 14:49:22;;;;;;;10.15;7.00;;;;;;;;;;10061045;28;20045;-81
2023/11/23 14:54:14;;;;;;;11.07;7.60;;;;;;;;;;10064327;28;20530;-81
2023/11/23 14:59:16;;;;;;;12.45;6.38;;;;;;;;;;10058212;28;20099;-81
2023/11/23 15:04:08;;;;;;;10.32;7.03;;;;;;;;;;10067522;28;20465;-81
2023/11/23 15:09:00;;;;;;;9.48;6.03;;;;;;;;;;10059194;28;20072;-81
2023/11/23 15:13:52;;;;;;;14.32;9.55;;;;;;;;;;10067992;28;20422;-81
2023/11/23 15:18:44;;;;;;;10.98;6.38;;;;;;;;;;10067128;28;20123;-82
2023/11/23 15:23:36;;;;;;;8.50;6.95;;;;;;;;;;10062340;28;20053;-81
2023/11/23 15:28:29;;;;;;;14.98;8.98;;;;;;;;;;10068340;28;20040;-82
2023/11/23 15:33:22;;;;;;;17.05;12.38;;;;;;;;;;10064914;28;20044;-81
2023/11/23 15:38:14;;;;;;;12.52;9.20;;;;;;;;;;10065461;28;20041;-82
2023/11/23 15:43:08;;;;;;;17.52;10.15;;;;;;;;;;10064574;28;20423;-83
2023/11/23 15:48:00;;;;;;;15.05;10.25;;;;;;;;;;10067008;28;20047;-82
2023/11/23 15:52:53;;;;;;;62.75;41.90;;;;;;;;;;10055885;28;20063;-81
2023/11/23 15:57:46;;;;;;;26.23;17.33;;;;;;;;;;10068216;28;20040;-82
2023/11/23 16:02:39;;;;;;;25.13;19.58;;;;;;;;;;10061873;28;20116;-82
2023/11/23 16:07:32;;;;;;;21.35;19.20;;;;;;;;;;10061162;28;20068;-82
2023/11/23 16:12:23;;;;;;;17.10;14.13;;;;;;;;;;10048307;28;20045;-81
2023/11/23 16:17:15;;;;;;;19.27;16.25;;;;;;;;;;10063801;28;20041;-82
2023/11/23 16:22:07;;;;;;;14.43;11.27;;;;;;;;;;10063724;28;20061;-82
2023/11/23 16:26:59;;;;;;;18.02;13.13;;;;;;;;;;10059512;28;20056;-81
2023/11/23 16:31:51;;;;;;;11.63;9.70;;;;;;;;;;10063310;28;20101;-81
2023/11/23 16:36:44;;;;;;;17.67;10.15;;;;;;;;;;10056414;28;20068;-81
2023/11/23 16:41:36;;;;;;;14.55;10.57;;;;;;;;;;10057167;28;20079;-81
2023/11/23 16:46:28;;;;;;;35.78;28.55;;;;;;;;;;10059469;28;20099;-81
2023/11/23 16:51:20;;;;;;;36.95;25.50;;;;;;;;;;10061653;28;20041;-81
2023/11/23 16:56:13;;;;;;;46.13;32.38;;;;;;;;;;10060247;28;20890;-78
2023/11/23 17:01:05;;;;;;;29.92;21.08;;;;;;;;;;10061367;28;20037;-78
2023/11/23 17:06:00;;;;;;;32.30;24.00;;;;;;;;;;10059620;28;20041;-78
2023/11/23 17:10:53;;;;;;;31.73;22.42;;;;;;;;;;10061032;28;20081;-78
2023/11/23 17:15:46;;;;;;;25.85;20.77;;;;;;;;;;10062149;28;20046;-78
2023/11/23 17:20:39;;;;;;;20.75;15.48;;;;;;;;;;10052542;28;20091;-78
2023/11/23 17:25:31;;;;;;;20.35;15.45;;;;;;;;;;10059348;28;20491;-78
2023/11/23 17:30:23;;;;;;;16.23;12.90;;;;;;;;;;10061261;28;20099;-77
2023/11/23 17:35:15;;;;;;;16.08;11.23;;;;;;;;;;10062925;28;20041;-77
2023/11/23 17:40:08;;;;;;;19.52;14.27;;;;;;;;;;10055975;28;20049;-76
2023/11/23 17:45:00;;;;;;;18.50;16.58;;;;;;;;;;10050208;28;20084;-73
2023/11/23 17:49:57;;;;;;;15.00;13.40;;;;;;;;;;10048905;28;20042;-73
2023/11/23 17:54:49;;;;;;;27.65;12.77;;;;;;;;;;10056424;28;20046;-77
2023/11/23 17:59:42;;;;;;;50.80;31.75;;;;;;;;;;10055107;28;20435;-77
2023/11/23 18:04:41;;;;;;;20.27;13.10;;;;;;;;;;10056411;28;20468;-75
2023/11/23 18:09:34;;;;;;;25.50;18.77;;;;;;;;;;10055712;28;20073;-75
2023/11/23 18:14:27;;;;;;;26.88;20.25;;;;;;;;;;10048116;28;20038;-78
2023/11/23 18:19:19;;;;;;;17.17;12.00;;;;;;;;;;10057530;28;20140;-77
2023/11/23 18:24:10;;;;;;;20.80;12.40;;;;;;;;;;10066517;28;20065;-77
2023/11/23 18:29:05;;;;;;;25.00;19.45;;;;;;;;;;10063569;28;20044;-76
2023/11/23 18:33:57;;;;;;;29.08;20.83;;;;;;;;;;10071000;28;20042;-76
2023/11/23 18:38:49;;;;;;;80.72;51.83;;;;;;;;;;10047097;28;20050;-76
2023/11/23 18:43:41;;;;;;;35.17;23.20;;;;;;;;;;10071501;28;20065;-76
2023/11/23 18:48:33;;;;;;;37.55;25.33;;;;;;;;;;10070332;28;20049;-77
2023/11/23 18:53:25;;;;;;;28.52;21.77;;;;;;;;;;10059436;28;20124;-78
2023/11/23 18:58:17;;;;;;;26.08;19.38;;;;;;;;;;10071191;28;20049;-78
2023/11/23 19:03:08;;;;;;;22.33;15.07;;;;;;;;;;10062982;28;20062;-77
2023/11/23 19:08:01;;;;;;;22.58;18.00;;;;;;;;;;10057186;28;20085;-80
2023/11/23 19:12:54;;;;;;;53.08;35.00;;;;;;;;;;10062416;28;20037;-80
2023/11/23 19:17:58;;;;;;;26.85;16.70;;;;;;;;;;10067947;28;20468;-81
2023/11/23 19:22:50;;;;;;;24.08;19.52;;;;;;;;;;10067657;28;20041;-81
2023/11/23 19:27:42;;;;;;;29.20;23.83;;;;;;;;;;10067391;28;20506;-81
2023/11/23 19:32:34;;;;;;;24.33;18.30;;;;;;;;;;10068412;28;20045;-78
2023/11/23 19:37:27;;;;;;;37.95;25.35;;;;;;;;;;10067700;28;20065;-77
2023/11/23 19:42:20;;;;;;;105.82;57.53;;;;;;;;;;10068815;28;20095;-80
2023/11/23 19:47:12;;;;;;;102.38;51.95;;;;;;;;;;10073540;28;20049;-79
2023/11/23 19:52:22;;;;;;;63.80;33.78;;;;;;;;;;10066789;28;20041;-80
2023/11/23 19:57:14;;;;;;;17.60;13.30;;;;;;;;;;10062345;28;20053;-79
2023/11/23 20:02:05;;;;;;;177.20;107.38;;;;;;;;;;10067457;28;20081;-79
2023/11/23 20:07:03;;;;;;;64.35;41.85;;;;;;;;;;10066242;28;20045;-80
2023/11/23 20:11:54;;;;;;;21.38;17.55;;;;;;;;;;10060857;28;20045;-80
2023/11/23 20:16:46;;;;;;;20.45;15.93;;;;;;;;;;10068096;28;20161;-79
2023/11/23 20:21:38;;;;;;;22.42;16.10;;;;;;;;;;10057827;28;20134;-81
2023/11/23 20:26:30;;;;;;;15.65;10.85;;;;;;;;;;10067774;28;20179;-80
2023/11/23 20:31:22;;;;;;;21.20;14.95;;;;;;;;;;10069263;28;20142;-81
2023/11/23 20:36:14;;;;;;;15.07;11.38;;;;;;;;;;10067685;28;20124;-80
2023/11/23 20:41:06;;;;;;;14.93;12.38;;;;;;;;;;10070282;28;20045;-82
2023/11/23 20:45:58;;;;;;;16.27;11.52;;;;;;;;;;10061122;28;20180;-80
2023/11/23 20:50:52;;;;;;;21.45;10.93;;;;;;;;;;10063118;28;20038;-80
2023/11/23 20:55:44;;;;;;;15.80;11.77;;;;;;;;;;10062092;28;20136;-80
2023/11/23 21:00:36;;;;;;;14.93;10.90;;;;;;;;;;10061159;28;20045;-80
2023/11/23 21:05:30;;;;;;;17.60;11.73;;;;;;;;;;10061602;28;20053;-80
2023/11/23 21:10:22;;;;;;;14.38;9.82;;;;;;;;;;10058659;28;20041;-80
2023/11/23 21:15:15;;;;;;;17.38;11.52;;;;;;;;;;10053798;28;20042;-80
2023/11/23 21:20:09;;;;;;;13.52;10.60;;;;;;;;;;10061567;28;20192;-80
2023/11/23 21:25:01;;;;;;;12.07;9.18;;;;;;;;;;10062295;28;20065;-80
2023/11/23 21:29:53;;;;;;;13.38;10.50;;;;;;;;;;10062123;28;20048;-81
2023/11/23 21:34:46;;;;;;;13.45;9.90;;;;;;;;;;10063941;28;20164;-80
2023/11/23 21:39:38;;;;;;;9.45;8.40;;;;;;;;;;10064501;28;20045;-81
2023/11/23 21:44:30;;;;;;;17.45;11.45;;;;;;;;;;10063815;28;20042;-80
2023/11/23 21:49:22;;;;;;;11.18;9.35;;;;;;;;;;10071769;28;20128;-80
2023/11/23 21:54:15;;;;;;;12.05;9.13;;;;;;;;;;10064983;28;20433;-80
2023/11/23 21:59:07;;;;;;;10.93;9.55;;;;;;;;;;10073076;28;20053;-79
2023/11/23 22:03:59;;;;;;;11.25;8.45;;;;;;;;;;10073158;28;20120;-80
2023/11/23 22:08:51;;;;;;;9.00;7.57;;;;;;;;;;10075471;28;20054;-80
2023/11/23 22:13:43;;;;;;;12.65;9.55;;;;;;;;;;10082217;28;20052;-80
2023/11/23 22:18:35;;;;;;;9.65;7.35;;;;;;;;;;10068728;28;20131;-79
2023/11/23 22:23:27;;;;;;;11.07;9.52;;;;;;;;;;10055551;28;20038;-79
2023/11/23 22:28:21;;;;;;;14.57;10.05;;;;;;;;;;10068886;28;20384;-79
2023/11/23 22:33:13;;;;;;;15.90;10.10;;;;;;;;;;10071359;28;20053;-79
2023/11/23 22:38:06;;;;;;;17.33;12.00;;;;;;;;;;10070709;28;20037;-79
2023/11/23 22:42:58;;;;;;;16.83;10.98;;;;;;;;;;10072331;28;20396;-80
2023/11/23 22:47:51;;;;;;;17.42;10.85;;;;;;;;;;10066385;28;20422;-79
2023/11/23 22:52:43;;;;;;;12.68;8.23;;;;;;;;;;10060215;28;20096;-79
2023/11/23 22:57:35;;;;;;;10.60;9.00;;;;;;;;;;10071166;28;20043;-79
2023/11/23 23:02:27;;;;;;;11.90;9.02;;;;;;;;;;10071195;28;20116;-81
2023/11/23 23:07:19;;;;;;;10.52;8.43;;;;;;;;;;10066970;28;20045;-79
2023/11/23 23:12:14;;;;;;;14.98;8.18;;;;;;;;;;10067968;28;20407;-79
2023/11/23 23:17:05;;;;;;;13.43;8.50;;;;;;;;;;10066668;28;20084;-79
2023/11/23 23:21:57;;;;;;;9.68;7.28;;;;;;;;;;10067748;28;20527;-79
2023/11/23 23:26:49;;;;;;;9.30;6.45;;;;;;;;;;10063346;28;20391;-79
2023/11/23 23:31:41;;;;;;;9.43;6.60;;;;;;;;;;10062576;28;20038;-80
2023/11/23 23:36:33;;;;;;;9.13;7.07;;;;;;;;;;10064740;28;20042;-80
2023/11/23 23:41:25;;;;;;;8.77;6.28;;;;;;;;;;10063230;28;20037;-80
2023/11/23 23:46:17;;;;;;;9.48;7.00;;;;;;;;;;10065814;28;20464;-80
2023/11/23 23:51:09;;;;;;;8.68;6.55;;;;;;;;;;10066463;28;20045;-80
2023/11/23 23:56:00;;;;;;;7.32;6.03;;;;;;;;;;10070459;28;20060;-80
